createdAt,value
2022-11-28T00:00:34.134Z,0.00
2022-11-28T00:01:34.198Z,0.00
2022-11-28T00:02:34.261Z,0.00
2022-11-28T00:03:34.164Z,0.00
2022-11-28T00:04:34.156Z,0.00
2022-11-28T00:05:34.145Z,0.00
2022-11-28T00:06:34.155Z,0.00
2022-11-28T00:07:34.168Z,0.00
2022-11-28T00:08:34.269Z,0.00
2022-11-28T00:09:34.157Z,0.00
2022-11-28T00:10:34.165Z,0.00
2022-11-28T00:11:34.169Z,0.00
2022-11-28T00:12:34.163Z,0.00
2022-11-28T00:13:34.179Z,0.00
2022-11-28T00:14:34.174Z,0.00
2022-11-28T00:15:34.229Z,0.00
2022-11-28T00:16:34.357Z,0.00
2022-11-28T00:17:34.177Z,0.00
2022-11-28T00:18:34.181Z,0.00
2022-11-28T00:19:34.191Z,0.00
2022-11-28T00:20:34.192Z,0.00
2022-11-28T00:21:34.196Z,0.00
2022-11-28T00:22:34.196Z,0.00
2022-11-28T00:23:34.203Z,0.00
2022-11-28T00:24:34.316Z,0.00
2022-11-28T00:25:34.198Z,0.00
2022-11-28T00:26:34.209Z,0.00
2022-11-28T00:27:34.210Z,0.00
2022-11-28T00:28:34.215Z,0.00
2022-11-28T00:29:34.208Z,0.00
2022-11-28T00:30:34.231Z,0.00
2022-11-28T00:31:34.264Z,0.00
2022-11-28T00:32:34.220Z,0.00
2022-11-28T00:33:34.219Z,0.00
2022-11-28T00:34:34.224Z,0.00
2022-11-28T00:35:34.224Z,0.00
2022-11-28T00:36:34.229Z,0.00
2022-11-28T00:37:34.235Z,0.00
2022-11-28T00:38:34.241Z,0.00
2022-11-28T00:39:34.235Z,0.00
2022-11-28T00:40:34.365Z,0.00
2022-11-28T00:41:34.243Z,0.00
2022-11-28T00:42:34.252Z,0.00
2022-11-28T00:43:34.248Z,0.00
2022-11-28T00:44:34.249Z,0.00
2022-11-28T00:45:34.356Z,0.00
2022-11-28T00:46:34.253Z,0.00
2022-11-28T00:47:34.257Z,0.00
2022-11-28T00:48:34.265Z,0.00
2022-11-28T00:49:34.275Z,0.00
2022-11-28T00:50:34.264Z,0.00
2022-11-28T00:51:34.275Z,0.00
2022-11-28T00:52:34.271Z,0.00
2022-11-28T00:53:34.285Z,0.00
2022-11-28T00:54:34.282Z,0.00
2022-11-28T00:55:34.279Z,0.00
2022-11-28T00:56:34.401Z,0.00
2022-11-28T00:57:34.284Z,0.00
2022-11-28T00:58:34.287Z,0.00
2022-11-28T00:59:34.296Z,0.00
2022-11-28T01:00:34.301Z,0.00
2022-11-28T01:01:34.415Z,0.00
2022-11-28T01:02:34.346Z,0.00
2022-11-28T01:03:34.299Z,0.00
2022-11-28T01:04:34.317Z,0.00
2022-11-28T01:05:34.304Z,0.00
2022-11-28T01:06:34.309Z,0.00
2022-11-28T01:07:34.384Z,0.00
2022-11-28T01:08:34.315Z,0.00
2022-11-28T01:09:34.316Z,0.00
2022-11-28T01:10:34.327Z,0.00
2022-11-28T01:11:34.339Z,0.00
2022-11-28T01:12:34.446Z,0.00
2022-11-28T01:13:34.334Z,0.00
2022-11-28T01:14:34.331Z,0.00
2022-11-28T01:15:34.341Z,0.00
2022-11-28T01:16:34.416Z,0.00
2022-11-28T01:17:34.348Z,0.00
2022-11-28T01:18:34.349Z,0.00
2022-11-28T01:19:34.357Z,0.00
2022-11-28T01:20:34.353Z,0.00
2022-11-28T01:21:34.352Z,0.00
2022-11-28T01:22:34.358Z,0.00
2022-11-28T01:23:34.363Z,0.00
2022-11-28T01:24:34.359Z,0.00
2022-11-28T01:25:34.366Z,0.00
2022-11-28T01:26:34.363Z,0.00
2022-11-28T01:27:34.371Z,0.00
2022-11-28T01:28:34.489Z,0.00
2022-11-28T01:29:34.370Z,0.00
2022-11-28T01:30:34.375Z,0.00
2022-11-28T01:31:34.447Z,0.00
2022-11-28T01:32:34.380Z,0.00
2022-11-28T01:33:34.380Z,0.00
2022-11-28T01:34:34.392Z,0.00
2022-11-28T01:35:34.393Z,0.00
2022-11-28T01:36:34.389Z,0.00
2022-11-28T01:37:34.397Z,0.00
2022-11-28T01:38:34.394Z,0.00
2022-11-28T01:39:34.396Z,0.00
2022-11-28T01:40:34.399Z,0.00
2022-11-28T01:41:34.402Z,0.00
2022-11-28T01:42:34.404Z,0.00
2022-11-28T01:43:34.414Z,0.00
2022-11-28T01:44:34.532Z,0.00
2022-11-28T01:45:34.420Z,0.00
2022-11-28T01:46:34.499Z,0.00
2022-11-28T01:47:34.425Z,0.00
2022-11-28T01:48:34.426Z,0.00
2022-11-28T01:49:34.429Z,0.00
2022-11-28T01:50:34.432Z,0.00
2022-11-28T01:51:34.429Z,0.00
2022-11-28T01:52:34.428Z,0.00
2022-11-28T01:53:34.433Z,0.00
2022-11-28T01:54:34.434Z,0.00
2022-11-28T01:55:34.438Z,0.00
2022-11-28T01:56:34.447Z,0.00
2022-11-28T01:57:34.450Z,0.00
2022-11-28T01:58:34.446Z,0.00
2022-11-28T01:59:34.450Z,0.00
2022-11-28T02:00:34.701Z,0.00
2022-11-28T02:01:34.463Z,0.00
2022-11-28T02:02:34.580Z,0.00
2022-11-28T02:03:34.467Z,0.00
2022-11-28T02:04:34.463Z,0.00
2022-11-28T02:05:34.461Z,0.00
2022-11-28T02:06:34.473Z,0.00
2022-11-28T02:07:34.560Z,0.00
2022-11-28T02:08:34.479Z,0.00
2022-11-28T02:09:34.478Z,0.00
2022-11-28T02:10:34.483Z,0.00
2022-11-28T02:11:34.477Z,0.00
2022-11-28T02:12:34.488Z,0.00
2022-11-28T02:13:34.481Z,0.00
2022-11-28T02:14:34.493Z,0.00
2022-11-28T02:15:34.487Z,0.00
2022-11-28T02:16:34.721Z,0.00
2022-11-28T02:17:34.500Z,0.00
2022-11-28T02:18:34.494Z,0.00
2022-11-28T02:19:34.499Z,0.00
2022-11-28T02:20:34.506Z,0.00
2022-11-28T02:21:34.504Z,0.00
2022-11-28T02:22:34.513Z,0.00
2022-11-28T02:23:34.507Z,0.00
2022-11-28T02:24:34.515Z,0.00
2022-11-28T02:25:34.521Z,0.00
2022-11-28T02:26:34.520Z,0.00
2022-11-28T02:27:34.522Z,0.00
2022-11-28T02:28:34.520Z,0.00
2022-11-28T02:29:34.531Z,0.00
2022-11-28T02:30:34.531Z,0.00
2022-11-28T02:31:34.598Z,0.00
2022-11-28T02:32:34.651Z,0.00
2022-11-28T02:33:34.538Z,0.00
2022-11-28T02:34:34.534Z,0.00
2022-11-28T02:35:34.545Z,0.00
2022-11-28T02:36:34.541Z,0.00
2022-11-28T02:37:34.547Z,0.00
2022-11-28T02:38:34.553Z,0.00
2022-11-28T02:39:34.552Z,0.00
2022-11-28T02:40:34.557Z,0.00
2022-11-28T02:41:34.549Z,0.00
2022-11-28T02:42:34.560Z,0.00
2022-11-28T02:43:34.577Z,0.00
2022-11-28T02:44:34.558Z,0.00
2022-11-28T02:45:34.566Z,0.00
2022-11-28T02:46:34.645Z,0.00
2022-11-28T02:47:34.571Z,0.00
2022-11-28T02:48:34.697Z,0.00
2022-11-28T02:49:34.568Z,0.00
2022-11-28T02:50:34.578Z,0.00
2022-11-28T02:51:34.578Z,0.00
2022-11-28T02:52:34.575Z,0.00
2022-11-28T02:53:34.581Z,0.00
2022-11-28T02:54:34.588Z,0.00
2022-11-28T02:55:34.597Z,0.00
2022-11-28T02:56:34.593Z,0.00
2022-11-28T02:57:34.591Z,0.00
2022-11-28T02:58:34.590Z,0.00
2022-11-28T02:59:34.602Z,0.00
2022-11-28T03:00:34.670Z,0.00
2022-11-28T03:01:34.662Z,0.00
2022-11-28T03:02:34.683Z,0.00
2022-11-28T03:03:34.611Z,0.00
2022-11-28T03:04:34.730Z,0.00
2022-11-28T03:05:34.615Z,0.00
2022-11-28T03:06:34.616Z,0.00
2022-11-28T03:07:34.696Z,0.00
2022-11-28T03:08:34.615Z,0.00
2022-11-28T03:09:34.623Z,0.00
2022-11-28T03:10:34.619Z,0.00
2022-11-28T03:11:34.625Z,0.00
2022-11-28T03:12:34.627Z,0.00
2022-11-28T03:13:34.627Z,0.00
2022-11-28T03:14:34.635Z,0.00
2022-11-28T03:15:34.632Z,0.00
2022-11-28T03:16:34.708Z,0.00
2022-11-28T03:17:34.636Z,0.00
2022-11-28T03:18:34.644Z,0.00
2022-11-28T03:19:34.650Z,0.00
2022-11-28T03:20:34.758Z,0.00
2022-11-28T03:21:34.652Z,0.00
2022-11-28T03:22:34.647Z,0.00
2022-11-28T03:23:34.654Z,0.00
2022-11-28T03:24:34.652Z,0.00
2022-11-28T03:25:34.653Z,0.00
2022-11-28T03:26:34.665Z,0.00
2022-11-28T03:27:34.669Z,0.00
2022-11-28T03:28:37.113Z,0.00
2022-11-28T03:29:34.668Z,0.00
2022-11-28T03:30:34.694Z,0.00
2022-11-28T03:31:34.738Z,0.00
2022-11-28T03:32:34.678Z,0.00
2022-11-28T03:33:34.678Z,0.00
2022-11-28T03:34:34.676Z,0.00
2022-11-28T03:35:34.676Z,0.00
2022-11-28T03:36:35.093Z,0.00
2022-11-28T03:37:34.680Z,0.00
2022-11-28T03:38:34.684Z,0.00
2022-11-28T03:39:34.694Z,0.00
2022-11-28T03:40:34.696Z,0.00
2022-11-28T03:41:34.697Z,0.00
2022-11-28T03:42:34.692Z,0.00
2022-11-28T03:43:34.699Z,0.00
2022-11-28T03:44:34.704Z,0.00
2022-11-28T03:45:34.699Z,0.00
2022-11-28T03:46:34.787Z,0.00
2022-11-28T03:47:34.704Z,0.00
2022-11-28T03:48:34.705Z,0.00
2022-11-28T03:49:34.710Z,0.00
2022-11-28T03:50:34.717Z,0.00
2022-11-28T03:51:34.723Z,0.00
2022-11-28T03:52:34.840Z,0.00
2022-11-28T03:53:34.725Z,0.00
2022-11-28T03:54:34.725Z,0.00
2022-11-28T03:55:34.833Z,0.00
2022-11-28T03:56:34.723Z,0.00
2022-11-28T03:57:34.728Z,0.00
2022-11-28T03:59:27.287Z,0.00
2022-11-28T04:00:27.291Z,0.00
2022-11-28T04:01:27.373Z,0.00
2022-11-28T04:02:27.292Z,0.00
2022-11-28T04:03:27.431Z,0.00
2022-11-28T04:04:27.297Z,0.00
2022-11-28T04:05:27.311Z,0.00
2022-11-28T04:06:27.308Z,0.00
2022-11-28T04:07:27.424Z,0.00
2022-11-28T04:08:27.421Z,0.00
2022-11-28T04:09:27.318Z,0.00
2022-11-28T04:10:27.317Z,0.00
2022-11-28T04:11:27.322Z,0.00
2022-11-28T04:12:27.322Z,0.00
2022-11-28T04:13:27.327Z,0.00
2022-11-28T04:14:27.320Z,0.00
2022-11-28T04:15:27.323Z,0.00
2022-11-28T04:16:27.411Z,0.00
2022-11-28T04:17:27.328Z,0.00
2022-11-28T04:19:44.945Z,0.00
2022-11-28T04:20:44.938Z,0.00
2022-11-28T04:21:44.946Z,0.00
2022-11-28T04:22:44.949Z,0.00
2022-11-28T04:23:45.062Z,0.00
2022-11-28T04:24:45.126Z,0.00
2022-11-28T04:25:44.958Z,0.00
2022-11-28T04:26:44.951Z,0.00
2022-11-28T04:27:44.962Z,0.00
2022-11-28T04:28:44.955Z,0.00
2022-11-28T04:29:44.968Z,0.00
2022-11-28T04:30:44.961Z,0.00
2022-11-28T04:31:45.067Z,0.00
2022-11-28T04:32:44.966Z,0.00
2022-11-28T04:33:44.977Z,0.00
2022-11-28T04:34:45.275Z,0.00
2022-11-28T04:35:44.978Z,0.00
2022-11-28T04:36:44.975Z,0.00
2022-11-28T04:37:44.984Z,0.00
2022-11-28T04:38:44.979Z,0.00
2022-11-28T04:39:45.099Z,0.00
2022-11-28T04:40:44.993Z,0.00
2022-11-28T04:41:44.985Z,0.00
2022-11-28T04:42:47.598Z,0.00
2022-11-28T04:43:44.991Z,0.00
2022-11-28T04:44:45.272Z,0.00
2022-11-28T04:45:45.099Z,0.00
2022-11-28T04:46:45.005Z,0.00
2022-11-28T04:47:45.005Z,0.00
2022-11-28T04:48:45.004Z,0.00
2022-11-28T04:49:45.010Z,0.00
2022-11-28T04:50:45.006Z,0.00
2022-11-28T04:51:45.017Z,0.00
2022-11-28T04:52:45.010Z,0.00
2022-11-28T04:53:45.021Z,0.00
2022-11-28T04:54:45.234Z,0.00
2022-11-28T04:55:45.138Z,0.00
2022-11-28T04:56:45.019Z,0.00
2022-11-28T04:57:45.030Z,0.00
2022-11-28T04:58:45.039Z,0.00
2022-11-28T04:59:45.036Z,0.00
2022-11-28T05:00:45.133Z,0.00
2022-11-28T05:01:45.097Z,0.00
2022-11-28T05:02:45.039Z,0.00
2022-11-28T05:03:45.036Z,0.00
2022-11-28T05:04:45.286Z,0.00
2022-11-28T05:05:45.044Z,0.00
2022-11-28T05:06:45.041Z,0.00
2022-11-28T05:07:45.140Z,0.00
2022-11-28T05:08:45.051Z,0.00
2022-11-28T05:09:45.048Z,0.00
2022-11-28T05:10:45.059Z,0.00
2022-11-28T05:11:45.166Z,0.00
2022-11-28T05:12:45.073Z,0.00
2022-11-28T05:13:45.072Z,0.00
2022-11-28T05:14:45.128Z,0.00
2022-11-28T05:15:45.067Z,0.00
2022-11-28T05:16:45.169Z,0.00
2022-11-28T05:17:45.073Z,0.00
2022-11-28T05:18:45.081Z,0.00
2022-11-28T05:19:45.071Z,0.00
2022-11-28T05:20:45.080Z,0.00
2022-11-28T05:21:45.079Z,0.00
2022-11-28T05:22:45.090Z,0.00
2022-11-28T05:23:45.081Z,0.00
2022-11-28T05:24:45.418Z,0.00
2022-11-28T05:25:45.086Z,0.00
2022-11-28T05:26:45.085Z,0.00
2022-11-28T05:27:45.209Z,0.00
2022-11-28T05:28:45.090Z,0.00
2022-11-28T05:29:51.759Z,0.00
2022-11-28T05:30:45.101Z,0.00
2022-11-28T05:31:45.177Z,0.00
2022-11-28T05:32:45.106Z,0.00
2022-11-28T05:33:45.106Z,0.00
2022-11-28T05:34:45.110Z,0.00
2022-11-28T05:35:45.114Z,0.00
2022-11-28T05:36:45.117Z,0.00
2022-11-28T05:37:45.122Z,0.00
2022-11-28T05:38:45.121Z,0.00
2022-11-28T05:39:45.439Z,0.00
2022-11-28T05:40:45.117Z,0.00
2022-11-28T05:41:45.128Z,0.00
2022-11-28T05:42:45.213Z,0.00
2022-11-28T05:43:45.239Z,0.00
2022-11-28T05:44:45.127Z,0.00
2022-11-28T05:45:45.226Z,0.00
2022-11-28T05:46:45.132Z,0.00
2022-11-28T05:47:45.171Z,0.00
2022-11-28T05:48:45.145Z,0.00
2022-11-28T05:49:45.369Z,0.00
2022-11-28T05:50:45.140Z,0.00
2022-11-28T05:51:45.148Z,0.00
2022-11-28T05:52:45.144Z,0.00
2022-11-28T05:53:45.146Z,0.00
2022-11-28T05:54:45.150Z,0.00
2022-11-28T05:55:45.156Z,0.00
2022-11-28T05:56:45.153Z,0.00
2022-11-28T05:57:45.154Z,0.00
2022-11-28T05:58:45.167Z,0.00
2022-11-28T05:59:45.494Z,0.00
2022-11-28T06:00:45.161Z,0.00
2022-11-28T06:01:45.229Z,0.00
2022-11-28T06:02:45.166Z,0.00
2022-11-28T06:03:45.177Z,0.00
2022-11-28T06:04:45.276Z,0.00
2022-11-28T06:05:45.326Z,0.00
2022-11-28T06:06:45.196Z,0.00
2022-11-28T06:07:45.278Z,0.00
2022-11-28T06:08:45.180Z,0.00
2022-11-28T06:09:45.525Z,0.00
2022-11-28T06:10:45.181Z,0.00
2022-11-28T06:11:45.194Z,0.00
2022-11-28T06:12:45.187Z,0.00
2022-11-28T06:13:45.191Z,0.00
2022-11-28T06:14:45.191Z,0.00
2022-11-28T06:15:45.314Z,0.00
2022-11-28T06:16:45.288Z,0.00
2022-11-28T06:17:45.204Z,0.00
2022-11-28T06:18:45.199Z,0.00
2022-11-28T06:19:45.405Z,4.00
2022-11-28T06:20:45.207Z,4.00
2022-11-28T06:21:45.206Z,0.00
2022-11-28T06:22:45.208Z,0.00
2022-11-28T06:23:45.212Z,4.00
2022-11-28T06:24:45.222Z,4.00
2022-11-28T06:25:45.214Z,0.00
2022-11-28T06:26:45.228Z,4.00
2022-11-28T06:27:45.227Z,8.00
2022-11-28T06:28:45.230Z,4.00
2022-11-28T06:29:45.403Z,4.00
2022-11-28T06:30:45.227Z,8.00
2022-11-28T06:31:45.445Z,8.00
2022-11-28T06:32:45.239Z,12.00
2022-11-28T06:33:45.239Z,12.00
2022-11-28T06:34:45.248Z,16.00
2022-11-28T06:35:45.247Z,16.00
2022-11-28T06:36:45.255Z,20.00
2022-11-28T06:37:45.246Z,24.00
2022-11-28T06:38:45.249Z,24.00
2022-11-28T06:39:45.282Z,28.00
2022-11-28T06:40:45.250Z,36.00
2022-11-28T06:41:45.249Z,40.00
2022-11-28T06:42:45.253Z,44.00
2022-11-28T06:43:45.261Z,48.00
2022-11-28T06:44:45.263Z,52.00
2022-11-28T06:45:45.291Z,60.00
2022-11-28T06:46:45.260Z,64.00
2022-11-28T06:47:45.379Z,76.00
2022-11-28T06:48:45.274Z,80.00
2022-11-28T06:49:45.519Z,88.00
2022-11-28T06:50:45.275Z,96.00
2022-11-28T06:51:45.276Z,108.00
2022-11-28T06:52:45.280Z,120.00
2022-11-28T06:53:45.276Z,128.00
2022-11-28T06:54:45.276Z,136.00
2022-11-28T06:55:45.281Z,144.00
2022-11-28T06:56:45.286Z,152.00
2022-11-28T06:57:45.284Z,160.00
2022-11-28T06:58:45.303Z,164.00
2022-11-28T06:59:45.452Z,172.00
2022-11-28T07:00:45.367Z,184.00
2022-11-28T07:01:45.514Z,192.00
2022-11-28T07:02:45.346Z,204.00
2022-11-28T07:03:45.418Z,216.00
2022-11-28T07:04:45.307Z,228.00
2022-11-28T07:05:45.300Z,244.00
2022-11-28T07:06:45.299Z,256.00
2022-11-28T07:07:53.728Z,276.00
2022-11-28T07:08:45.311Z,300.00
2022-11-28T07:09:45.695Z,316.00
2022-11-28T07:10:45.317Z,328.00
2022-11-28T07:11:45.311Z,340.00
2022-11-28T07:12:45.314Z,348.00
2022-11-28T07:13:45.315Z,360.00
2022-11-28T07:14:45.318Z,376.00
2022-11-28T07:15:45.320Z,396.00
2022-11-28T07:16:45.356Z,416.00
2022-11-28T07:17:45.331Z,428.00
2022-11-28T07:18:45.326Z,444.00
2022-11-28T07:19:48.235Z,460.00
2022-11-28T07:20:45.330Z,484.00
2022-11-28T07:21:45.338Z,512.00
2022-11-28T07:22:45.334Z,540.00
2022-11-28T07:23:45.334Z,572.00
2022-11-28T07:24:45.346Z,608.00
2022-11-28T07:25:45.344Z,640.00
2022-11-28T07:26:45.342Z,668.00
2022-11-28T07:27:45.364Z,696.00
2022-11-28T07:28:45.345Z,728.00
2022-11-28T07:29:45.517Z,760.00
2022-11-28T07:30:45.347Z,804.00
2022-11-28T07:31:45.405Z,836.00
2022-11-28T07:32:45.359Z,884.00
2022-11-28T07:33:45.358Z,936.00
2022-11-28T07:34:49.841Z,992.00
2022-11-28T07:35:45.476Z,1056.00
2022-11-28T07:36:45.373Z,1128.00
2022-11-28T07:37:45.372Z,1200.00
2022-11-28T07:38:45.365Z,1272.00
2022-11-28T07:39:45.540Z,1344.00
2022-11-28T07:40:45.368Z,1412.00
2022-11-28T07:41:45.373Z,1472.00
2022-11-28T07:42:45.374Z,1532.00
2022-11-28T07:43:45.384Z,1604.00
2022-11-28T07:44:45.378Z,1680.00
2022-11-28T07:46:00.087Z,1772.00
2022-11-28T07:46:45.464Z,1872.00
2022-11-28T07:47:45.394Z,1972.00
2022-11-28T07:48:45.395Z,2072.00
2022-11-28T07:49:45.486Z,2204.00
2022-11-28T07:50:45.390Z,2376.00
2022-11-28T07:51:45.414Z,2572.00
2022-11-28T07:52:45.402Z,2776.00
2022-11-28T07:53:45.396Z,2996.00
2022-11-28T07:54:45.401Z,3248.00
2022-11-28T07:55:45.406Z,3524.00
2022-11-28T07:57:12.052Z,3800.00
2022-11-28T07:57:45.412Z,4056.00
2022-11-28T07:58:45.415Z,4276.00
2022-11-28T07:59:45.674Z,4464.00
2022-11-28T08:00:45.412Z,4636.00
2022-11-28T08:01:45.466Z,4812.00
2022-11-28T08:02:45.421Z,4988.00
2022-11-28T08:03:45.417Z,5156.00
2022-11-28T08:04:50.512Z,5308.00
2022-11-28T08:05:45.430Z,5440.00
2022-11-28T08:06:45.436Z,5504.00
2022-11-28T08:07:45.508Z,5448.00
2022-11-28T08:08:45.435Z,5268.00
2022-11-28T08:09:45.746Z,4924.00
2022-11-28T08:10:45.434Z,4440.00
2022-11-28T08:11:45.444Z,3968.00
2022-11-28T08:12:45.444Z,3648.00
2022-11-28T08:13:45.441Z,3408.00
2022-11-28T08:14:45.748Z,3168.00
2022-11-28T08:15:45.453Z,2948.00
2022-11-28T08:16:45.586Z,2772.00
2022-11-28T08:17:45.452Z,2624.00
2022-11-28T08:18:45.464Z,2516.00
2022-11-28T08:19:45.455Z,2444.00
2022-11-28T08:20:45.458Z,2408.00
2022-11-28T08:21:45.469Z,2396.00
2022-11-28T08:22:45.466Z,2376.00
2022-11-28T08:23:45.484Z,2348.00
2022-11-28T08:24:45.735Z,2320.00
2022-11-28T08:25:45.477Z,2296.00
2022-11-28T08:26:45.472Z,2280.00
2022-11-28T08:27:45.475Z,2264.00
2022-11-28T08:28:45.492Z,2244.00
2022-11-28T08:29:50.384Z,2204.00
2022-11-28T08:30:45.552Z,2140.00
2022-11-28T08:31:45.484Z,2064.00
2022-11-28T08:32:45.488Z,1976.00
2022-11-28T08:33:45.490Z,1884.00
2022-11-28T08:34:45.501Z,1788.00
2022-11-28T08:35:45.503Z,1688.00
2022-11-28T08:36:45.504Z,1600.00
2022-11-28T08:37:45.508Z,1536.00
2022-11-28T08:38:57.791Z,1484.00
2022-11-28T08:39:45.716Z,1456.00
2022-11-28T08:40:45.505Z,1440.00
2022-11-28T08:41:45.517Z,1428.00
2022-11-28T08:42:45.510Z,1420.00
2022-11-28T08:43:45.516Z,1420.00
2022-11-28T08:44:45.514Z,1432.00
2022-11-28T08:45:45.556Z,1448.00
2022-11-28T08:46:45.529Z,1468.00
2022-11-28T08:47:45.531Z,1476.00
2022-11-28T08:48:45.534Z,1476.00
2022-11-28T08:49:45.827Z,1472.00
2022-11-28T08:50:48.069Z,1472.00
2022-11-28T08:51:45.540Z,1484.00
2022-11-28T08:52:45.535Z,1496.00
2022-11-28T08:53:48.768Z,1532.00
2022-11-28T08:54:45.806Z,1588.00
2022-11-28T08:55:45.559Z,1676.00
2022-11-28T08:56:45.552Z,1768.00
2022-11-28T08:57:45.546Z,1848.00
2022-11-28T08:58:45.549Z,1916.00
2022-11-28T08:59:45.845Z,1960.00
2022-11-28T09:00:45.554Z,1984.00
2022-11-28T09:01:45.704Z,1996.00
2022-11-28T09:02:45.560Z,2000.00
2022-11-28T09:03:45.611Z,2004.00
2022-11-28T09:04:45.569Z,2000.00
2022-11-28T09:05:45.574Z,1980.00
2022-11-28T09:06:45.575Z,1964.00
2022-11-28T09:07:45.593Z,1952.00
2022-11-28T09:08:45.582Z,1948.00
2022-11-28T09:09:46.071Z,1964.00
2022-11-28T09:10:45.582Z,1980.00
2022-11-28T09:11:45.603Z,1984.00
2022-11-28T09:12:45.581Z,1984.00
2022-11-28T09:13:45.584Z,1984.00
2022-11-28T09:14:45.585Z,1984.00
2022-11-28T09:15:46.769Z,1976.00
2022-11-28T09:16:45.646Z,1972.00
2022-11-28T09:17:45.593Z,1976.00
2022-11-28T09:18:45.609Z,1976.00
2022-11-28T09:19:45.598Z,1972.00
2022-11-28T09:20:45.600Z,1980.00
2022-11-28T09:21:45.604Z,1996.00
2022-11-28T09:22:45.612Z,2020.00
2022-11-28T09:23:45.609Z,2040.00
2022-11-28T09:24:45.617Z,2052.00
2022-11-28T09:25:45.611Z,2072.00
2022-11-28T09:26:45.614Z,2076.00
2022-11-28T09:27:45.647Z,2084.00
2022-11-28T09:28:45.619Z,2088.00
2022-11-28T09:29:45.799Z,2092.00
2022-11-28T09:30:45.655Z,2080.00
2022-11-28T09:31:47.528Z,2076.00
2022-11-28T09:32:45.628Z,2068.00
2022-11-28T09:33:45.639Z,2064.00
2022-11-28T09:34:45.640Z,2076.00
2022-11-28T09:35:45.637Z,2080.00
2022-11-28T09:36:45.644Z,2080.00
2022-11-28T09:37:45.641Z,2052.00
2022-11-28T09:38:45.641Z,2016.00
2022-11-28T09:40:11.487Z,1996.00
2022-11-28T09:40:45.654Z,1988.00
2022-11-28T09:41:45.659Z,1988.00
2022-11-28T09:42:45.653Z,2000.00
2022-11-28T09:43:46.996Z,2020.00
2022-11-28T09:44:45.665Z,2032.00
2022-11-28T09:45:45.681Z,2056.00
2022-11-28T09:46:45.675Z,2112.00
2022-11-28T09:47:45.669Z,2220.00
2022-11-28T09:48:45.681Z,2324.00
2022-11-28T09:49:46.015Z,2348.00
2022-11-28T09:50:45.670Z,2304.00
2022-11-28T09:51:45.672Z,2248.00
2022-11-28T09:52:45.754Z,2168.00
2022-11-28T09:53:45.677Z,2104.00
2022-11-28T09:54:45.684Z,2064.00
2022-11-28T09:55:45.687Z,2080.00
2022-11-28T09:56:45.725Z,2116.00
2022-11-28T09:57:45.685Z,2164.00
2022-11-28T09:58:45.689Z,2224.00
2022-11-28T09:59:45.886Z,2292.00
2022-11-28T10:00:45.694Z,2328.00
2022-11-28T10:01:45.697Z,2320.00
2022-11-28T10:02:45.705Z,2296.00
2022-11-28T10:03:45.726Z,2268.00
2022-11-28T10:04:45.734Z,2280.00
2022-11-28T10:05:45.713Z,2308.00
2022-11-28T10:06:45.748Z,2308.00
2022-11-28T10:07:45.774Z,2344.00
2022-11-28T10:08:45.719Z,2404.00
2022-11-28T10:09:45.824Z,2460.00
2022-11-28T10:10:45.716Z,2532.00
2022-11-28T10:11:45.728Z,2632.00
2022-11-28T10:12:45.722Z,2772.00
2022-11-28T10:14:07.159Z,2996.00
2022-11-28T10:14:45.725Z,3336.00
2022-11-28T10:15:45.754Z,3644.00
2022-11-28T10:16:45.843Z,3756.00
2022-11-28T10:17:45.737Z,3844.00
2022-11-28T10:18:45.736Z,3964.00
2022-11-28T10:19:54.441Z,4100.00
2022-11-28T10:20:45.742Z,4260.00
2022-11-28T10:21:45.743Z,4416.00
2022-11-28T10:22:45.746Z,4556.00
2022-11-28T10:23:45.755Z,4668.00
2022-11-28T10:24:45.770Z,4756.00
2022-11-28T10:25:45.760Z,4820.00
2022-11-28T10:26:45.757Z,4888.00
2022-11-28T10:27:45.759Z,4952.00
2022-11-28T10:28:45.770Z,5024.00
2022-11-28T10:29:46.161Z,5092.00
2022-11-28T10:30:45.960Z,5176.00
2022-11-28T10:31:45.799Z,5260.00
2022-11-28T10:32:45.774Z,5368.00
2022-11-28T10:33:45.784Z,5444.00
2022-11-28T10:34:45.788Z,5484.00
2022-11-28T10:35:45.787Z,5448.00
2022-11-28T10:36:45.791Z,5316.00
2022-11-28T10:37:45.796Z,5180.00
2022-11-28T10:38:45.801Z,5144.00
2022-11-28T10:39:45.901Z,5236.00
2022-11-28T10:40:45.795Z,5440.00
2022-11-28T10:41:45.807Z,5660.00
2022-11-28T10:42:45.803Z,5908.00
2022-11-28T10:43:45.805Z,6196.00
2022-11-28T10:44:45.816Z,6376.00
2022-11-28T10:45:45.855Z,6512.00
2022-11-28T10:46:45.879Z,6608.00
2022-11-28T10:47:45.862Z,6628.00
2022-11-28T10:48:45.822Z,6644.00
2022-11-28T10:49:45.976Z,6740.00
2022-11-28T10:50:45.831Z,6752.00
2022-11-28T10:51:45.836Z,6756.00
2022-11-28T10:52:45.831Z,6752.00
2022-11-28T10:53:45.844Z,6668.00
2022-11-28T10:54:45.844Z,6692.00
2022-11-28T10:55:45.847Z,6632.00
2022-11-28T10:56:45.845Z,6644.00
2022-11-28T10:57:45.847Z,6672.00
2022-11-28T10:58:45.857Z,6652.00
2022-11-28T10:59:46.029Z,6604.00
2022-11-28T11:00:45.856Z,6568.00
2022-11-28T11:01:49.941Z,6568.00
2022-11-28T11:02:45.870Z,6632.00
2022-11-28T11:03:45.910Z,6744.00
2022-11-28T11:04:45.921Z,6892.00
2022-11-28T11:05:45.878Z,7120.00
2022-11-28T11:07:06.937Z,7460.00
2022-11-28T11:07:45.937Z,7904.00
2022-11-28T11:08:45.890Z,8340.00
2022-11-28T11:09:46.118Z,8676.00
2022-11-28T11:10:45.889Z,9016.00
2022-11-28T11:11:45.891Z,9364.00
2022-11-28T11:12:45.895Z,9692.00
2022-11-28T11:13:45.903Z,10068.00
2022-11-28T11:14:45.900Z,10432.00
2022-11-28T11:15:46.045Z,10828.00
2022-11-28T11:16:45.907Z,11192.00
2022-11-28T11:17:45.917Z,11564.00
2022-11-28T11:18:45.919Z,11772.00
2022-11-28T11:19:46.130Z,11808.00
2022-11-28T11:20:45.927Z,11588.00
2022-11-28T11:21:45.921Z,11060.00
2022-11-28T11:22:46.237Z,10332.00
2022-11-28T11:23:45.927Z,9616.00
2022-11-28T11:24:45.942Z,8936.00
2022-11-28T11:25:45.943Z,8372.00
2022-11-28T11:26:45.942Z,7972.00
2022-11-28T11:27:45.951Z,7676.00
2022-11-28T11:28:45.955Z,7408.00
2022-11-28T11:29:49.235Z,7164.00
2022-11-28T11:30:46.086Z,6884.00
2022-11-28T11:31:45.964Z,6584.00
2022-11-28T11:32:51.109Z,6348.00
2022-11-28T11:33:45.980Z,6244.00
2022-11-28T11:34:45.966Z,6280.00
2022-11-28T11:35:45.999Z,6376.00
2022-11-28T11:36:45.974Z,6396.00
2022-11-28T11:37:45.979Z,6352.00
2022-11-28T11:38:45.990Z,6328.00
2022-11-28T11:39:45.996Z,6292.00
2022-11-28T11:40:46.008Z,6288.00
2022-11-28T11:41:46.000Z,6316.00
2022-11-28T11:42:45.994Z,6388.00
2022-11-28T11:43:46.007Z,6416.00
2022-11-28T11:44:46.004Z,6496.00
2022-11-28T11:45:51.162Z,6592.00
2022-11-28T11:46:46.077Z,6760.00
2022-11-28T11:47:46.011Z,6924.00
2022-11-28T11:48:46.020Z,6988.00
2022-11-28T11:49:46.385Z,6840.00
2022-11-28T11:50:46.030Z,6628.00
2022-11-28T11:51:46.057Z,6388.00
2022-11-28T11:52:46.038Z,6240.00
2022-11-28T11:53:46.043Z,6268.00
2022-11-28T11:54:46.046Z,6428.00
2022-11-28T11:55:46.040Z,6560.00
2022-11-28T11:56:46.047Z,6536.00
2022-11-28T11:57:46.052Z,6368.00
2022-11-28T11:58:46.050Z,6168.00
2022-11-28T11:59:46.151Z,6036.00
2022-11-28T12:00:46.058Z,5984.00
2022-11-28T12:01:46.064Z,5952.00
2022-11-28T12:02:46.332Z,5960.00
2022-11-28T12:03:46.128Z,5944.00
2022-11-28T12:04:49.969Z,5924.00
2022-11-28T12:06:06.499Z,5880.00
2022-11-28T12:06:46.077Z,5676.00
2022-11-28T12:07:46.187Z,5392.00
2022-11-28T12:08:46.103Z,5148.00
2022-11-28T12:09:46.619Z,4980.00
2022-11-28T12:10:46.099Z,4896.00
2022-11-28T12:11:47.172Z,4872.00
2022-11-28T12:12:46.099Z,4880.00
2022-11-28T12:13:46.105Z,4872.00
2022-11-28T12:14:46.560Z,4852.00
2022-11-28T12:15:46.225Z,4848.00
2022-11-28T12:16:46.301Z,4900.00
2022-11-28T12:17:52.348Z,5004.00
2022-11-28T12:18:46.118Z,5136.00
2022-11-28T12:19:46.125Z,5272.00
2022-11-28T12:20:46.129Z,5392.00
2022-11-28T12:21:46.136Z,5448.00
2022-11-28T12:22:46.140Z,5456.00
2022-11-28T12:23:46.170Z,5504.00
2022-11-28T12:24:46.780Z,5636.00
2022-11-28T12:25:46.149Z,5784.00
2022-11-28T12:26:46.155Z,5852.00
2022-11-28T12:27:46.156Z,5864.00
2022-11-28T12:28:46.155Z,5820.00
2022-11-28T12:29:46.512Z,5772.00
2022-11-28T12:30:46.163Z,5696.00
2022-11-28T12:31:46.228Z,5616.00
2022-11-28T12:32:46.168Z,5576.00
2022-11-28T12:33:46.186Z,5560.00
2022-11-28T12:34:46.181Z,5528.00
2022-11-28T12:35:46.184Z,5492.00
2022-11-28T12:36:46.193Z,5448.00
2022-11-28T12:38:09.881Z,5420.00
2022-11-28T12:38:46.188Z,5428.00
2022-11-28T12:39:46.447Z,5432.00
2022-11-28T12:40:46.195Z,5444.00
2022-11-28T12:41:46.200Z,5472.00
2022-11-28T12:42:46.201Z,5508.00
2022-11-28T12:43:46.214Z,5568.00
2022-11-28T12:44:46.216Z,5612.00
2022-11-28T12:45:46.214Z,5640.00